Avioradar koristi kolačiće da bi Vam omogućio jednostavnije i ugodnije korištenje stranice. 

AVIORADAR - Croatian aviation website

METAR & TAF

[Source: ADDS]
METAR
LDZA 250830Z VRB02KT CAVOK M04/M06 Q1033 NOSIG =
LDZA 250525Z 2506/2606 VRB02KT CAVOK TX00/2513Z TNM11/2604Z LDSP 250830Z VRB01KT CAVOK 04/M13 Q1033 NOSIG =
LDSP 250525Z 2506/2606 31008KT CAVOK TX09/2512Z TNM01/2506Z LDDU 250830Z 03017KT 330V130 CAVOK 02/M20 Q1030 TEMPO VRB15G30KT =
LDDU 250525Z 2506/2606 02020KT CAVOK TX07/2513Z TN00/2506Z TEMPO 2506/2511 VRB20G30KT TEMPO 2506/2511 02020G30KT BECMG 2510/2512 30008KT BECMG 2515/2518 02018KT PROB40 TEMPO 2518/2606 02020G30KT LDPL 250830Z VRB02KT CAVOK 04/M03 Q1032 BECMG 30009KT =
LDPL 250525Z 2506/2606 04006KT 9999 FEW040 TX09/2512Z TNM03/2506Z BECMG 2508/2510 30009KT BECMG 2519/2521 30005KT PROB30 TEMPO 2601/2606 BKN010 LDZD 250830Z VRB02KT CAVOK 02/M10 Q1032 NOSIG =
LDZD 250525Z 2506/2606 03004KT CAVOK TX08/2512Z TNM06/2506Z BECMG 2510/2512 31008KT BECMG 2516/2518 34005KT PROB30 TEMPO 2602/2606 2000 BCFG LDRI 250830Z 12005KT CAVOK 05/M07 Q1032 =
COR LDRI 250555Z 2506/2606 VRB02KT CAVOK TX08/2512Z TNM01/2605Z PROB30 TEMPO 2508/2515 32007KT LDOS 250830Z 22006KT CAVOK M05/M08 Q1034 =
LDOS 250525Z 2506/2606 26005KT CAVOK TX00/2513Z TNM10/2506Z BECMG 2518/2520 29012KT
TAF
LDZA 250525Z 2506/2606 VRB02KT CAVOK TX00/2513Z TNM11/2604Z =
LDSP 250525Z 2506/2606 31008KT CAVOK TX09/2512Z TNM01/2506Z =
LDDU 250525Z 2506/2606 02020KT CAVOK TX07/2513Z TN00/2506Z TEMPO 2506/2511 VRB20G30KT TEMPO 2506/2511 02020G30KT BECMG 2510/2512 30008KT BECMG 2515/2518 02018KT PROB40 TEMPO 2518/2606 02020G30KT =
LDPL 250525Z 2506/2606 04006KT 9999 FEW040 TX09/2512Z TNM03/2506Z BECMG 2508/2510 30009KT BECMG 2519/2521 30005KT PROB30 TEMPO 2601/2606 BKN010 =
LDZD 250525Z 2506/2606 03004KT CAVOK TX08/2512Z TNM06/2506Z BECMG 2510/2512 31008KT BECMG 2516/2518 34005KT PROB30 TEMPO 2602/2606 2000 BCFG =
COR LDRI 250555Z 2506/2606 VRB02KT CAVOK TX08/2512Z TNM01/2605Z PROB30 TEMPO 2508/2515 32007KT =
LDOS 250525Z 2506/2606 26005KT CAVOK TX00/2513Z TNM10/2506Z BECMG 2518/2520 29012KT =
SR / SS: 06:24 / 15:51 UTC (Zagreb 2022-01-25)